createdAt,value
2019-05-06T00:00:55.316Z,100384.62
2019-05-06T00:03:16.836Z,100380.69
2019-05-06T00:05:46.612Z,100380.23
2019-05-06T00:08:17.333Z,100381.94
2019-05-06T00:10:47.467Z,100387.29
2019-05-06T00:13:17.823Z,100382.13
2019-05-06T00:15:47.832Z,100382.30
2019-05-06T00:18:17.828Z,100388.11
2019-05-06T00:20:48.135Z,100383.45
2019-05-06T00:23:24.950Z,100386.99
2019-05-06T00:26:27.734Z,100383.61
2019-05-06T00:29:00.722Z,100386.05
2019-05-06T00:31:30.756Z,100383.81
2019-05-06T00:34:01.288Z,100384.92
2019-05-06T00:36:31.405Z,100392.25
2019-05-06T00:39:11.885Z,100387.55
2019-05-06T00:41:43.421Z,100393.01
2019-05-06T00:44:16.697Z,100393.66
2019-05-06T00:46:46.606Z,100386.64
2019-05-06T00:49:16.685Z,100393.56
2019-05-06T00:51:47.479Z,100388.02
2019-05-06T00:54:20.849Z,100387.55
2019-05-06T00:56:51.131Z,100391.23
2019-05-06T00:59:21.227Z,100397.87
2019-05-06T01:01:51.417Z,100394.78
2019-05-06T01:04:21.302Z,100393.37
2019-05-06T01:06:51.172Z,100392.05
2019-05-06T01:09:23.402Z,100398.45
2019-05-06T01:11:55.521Z,100400.33
2019-05-06T01:14:35.175Z,100403.41
2019-05-06T01:17:05.519Z,100404.17
2019-05-06T01:19:37.186Z,100404.63
2019-05-06T01:22:07.220Z,100407.45
2019-05-06T01:24:37.334Z,100405.95
2019-05-06T01:27:07.311Z,100411.76
2019-05-06T01:29:37.334Z,100409.89
2019-05-06T01:32:07.654Z,100415.70
2019-05-06T01:34:37.619Z,100415.70
2019-05-06T01:37:07.508Z,100415.69
2019-05-06T01:39:46.711Z,100418.91
2019-05-06T01:42:36.831Z,100412.70
2019-05-06T01:45:34.883Z,100416.09
2019-05-06T01:48:05.395Z,100415.32
2019-05-06T01:50:35.221Z,100421.32
2019-05-06T01:53:05.231Z,100419.44
2019-05-06T01:55:35.236Z,100424.23
2019-05-06T01:58:05.632Z,100428.23
2019-05-06T02:00:35.482Z,100433.48
2019-05-06T02:03:05.451Z,100431.83
2019-05-06T02:05:36.201Z,100435.94
2019-05-06T02:08:09.511Z,100433.39
2019-05-06T02:10:40.010Z,100434.20
2019-05-06T02:13:10.233Z,100436.92
2019-05-06T02:15:40.036Z,100441.88
2019-05-06T02:18:11.143Z,100444.84
2019-05-06T02:20:44.514Z,100448.96
2019-05-06T02:23:18.702Z,100448.20
2019-05-06T02:25:51.353Z,100452.99
2019-05-06T02:28:23.604Z,100454.06
2019-05-06T02:31:14.632Z,100456.31
2019-05-06T02:34:05.060Z,100458.81
2019-05-06T02:37:05.959Z,100458.59
2019-05-06T02:39:34.369Z,100466.72
2019-05-06T02:42:05.058Z,100468.26
2019-05-06T02:44:35.291Z,100464.19
2019-05-06T02:47:28.267Z,100468.71
2019-05-06T02:50:04.400Z,100471.70
2019-05-06T02:52:33.955Z,100470.28
2019-05-06T02:55:06.454Z,100468.20
2019-05-06T02:57:35.725Z,100472.67
2019-05-06T03:00:06.984Z,100479.41
2019-05-06T03:02:43.225Z,100483.11
2019-05-06T03:05:08.864Z,100484.07
2019-05-06T03:07:38.823Z,100478.28
2019-05-06T03:10:09.447Z,100485.23
2019-05-06T03:12:39.419Z,100478.83
2019-05-06T03:15:09.882Z,100482.56
2019-05-06T03:17:39.803Z,100479.95
2019-05-06T03:20:13.536Z,100481.43
2019-05-06T03:22:59.726Z,100481.56
2019-05-06T03:25:33.172Z,100483.05
2019-05-06T03:28:04.414Z,100477.98
2019-05-06T03:30:36.162Z,100477.52
2019-05-06T03:33:40.352Z,100484.02
2019-05-06T03:35:52.270Z,100483.95
2019-05-06T03:38:13.538Z,100487.98
2019-05-06T03:40:45.877Z,100494.45
2019-05-06T03:43:16.122Z,100489.72
2019-05-06T03:46:14.840Z,100495.25
2019-05-06T03:48:46.836Z,100501.09
2019-05-06T03:51:18.550Z,100504.17
2019-05-06T03:53:48.848Z,100500.57
2019-05-06T03:56:21.087Z,100508.88
2019-05-06T03:58:53.841Z,100508.42
2019-05-06T04:01:24.288Z,100512.03
2019-05-06T04:03:57.221Z,100509.57
2019-05-06T04:06:27.486Z,100513.58
2019-05-06T04:08:58.768Z,100510.08
2019-05-06T04:11:29.690Z,100511.78
2019-05-06T04:14:02.785Z,100516.31
2019-05-06T04:16:53.261Z,100515.01
2019-05-06T04:19:37.913Z,100514.28
2019-05-06T04:22:23.388Z,100517.76
2019-05-06T04:25:07.137Z,100513.46
2019-05-06T04:27:49.059Z,100523.30
2019-05-06T04:30:20.473Z,100521.00
2019-05-06T04:32:53.187Z,100522.11
2019-05-06T04:35:24.403Z,100527.39
2019-05-06T04:37:54.478Z,100522.15
2019-05-06T04:40:25.269Z,100524.03
2019-05-06T04:42:56.048Z,100525.44
2019-05-06T04:45:26.054Z,100525.36
2019-05-06T04:47:56.573Z,100526.13
2019-05-06T04:50:26.756Z,100522.94
2019-05-06T04:53:06.292Z,100521.36
2019-05-06T04:55:37.174Z,100528.66
2019-05-06T04:58:07.900Z,100522.69
2019-05-06T05:00:38.812Z,100522.74
2019-05-06T05:03:09.014Z,100520.38
2019-05-06T05:05:39.068Z,100523.77
2019-05-06T05:08:09.060Z,100529.20
2019-05-06T05:10:58.015Z,100524.75
2019-05-06T05:13:43.330Z,100529.58
2019-05-06T05:16:33.170Z,100535.42
2019-05-06T05:19:08.092Z,100533.91
2019-05-06T05:21:39.973Z,100539.62
2019-05-06T05:24:11.937Z,100540.52
2019-05-06T05:26:45.084Z,100539.66
2019-05-06T05:29:14.672Z,100536.45
2019-05-06T05:31:45.193Z,100547.02
2019-05-06T05:34:15.513Z,100533.22
2019-05-06T05:36:45.514Z,100533.27
2019-05-06T05:39:16.467Z,100534.02
2019-05-06T05:41:52.124Z,100538.61
2019-05-06T05:44:32.347Z,100534.64
2019-05-06T05:47:03.471Z,100541.72
2019-05-06T05:49:50.445Z,100539.58
2019-05-06T05:52:22.241Z,100538.13
2019-05-06T05:54:55.629Z,100536.14
2019-05-06T05:57:25.718Z,100529.78
2019-05-06T05:59:58.384Z,100534.76
2019-05-06T06:02:27.870Z,100534.59
2019-05-06T06:04:57.941Z,100530.38
2019-05-06T06:07:28.957Z,100538.00
2019-05-06T06:10:12.863Z,100543.30
2019-05-06T06:12:42.971Z,100540.91
2019-05-06T06:15:34.206Z,100532.90
2019-05-06T06:18:29.461Z,100538.92
2019-05-06T06:21:27.856Z,100542.87
2019-05-06T06:23:58.113Z,100532.58
2019-05-06T06:26:28.392Z,100536.31
2019-05-06T06:28:58.410Z,100526.84
2019-05-06T06:31:47.830Z,100535.86
2019-05-06T06:34:23.498Z,100535.77
2019-05-06T06:37:13.251Z,100531.43
2019-05-06T06:39:45.188Z,100540.44
2019-05-06T06:42:15.625Z,100540.05
2019-05-06T06:44:45.851Z,100540.92
2019-05-06T06:47:15.825Z,100527.44
2019-05-06T06:49:47.040Z,100521.76
2019-05-06T06:52:17.871Z,100517.73
2019-05-06T06:54:48.237Z,100525.76
2019-05-06T06:57:37.608Z,100513.88
2019-05-06T07:00:33.144Z,100518.87
2019-05-06T07:03:07.191Z,100511.27
2019-05-06T07:06:06.901Z,100523.20
2019-05-06T07:08:38.832Z,100521.53
2019-05-06T07:11:08.775Z,100513.20
2019-05-06T07:13:43.861Z,100512.03
2019-05-06T07:16:13.846Z,100512.25
2019-05-06T07:18:43.832Z,100504.36
2019-05-06T07:21:23.249Z,100519.98
2019-05-06T07:23:53.149Z,100524.33
2019-05-06T07:26:25.815Z,100529.91
2019-05-06T07:29:03.263Z,100529.75
2019-05-06T07:31:32.971Z,100531.16
2019-05-06T07:34:02.698Z,100520.56
2019-05-06T07:36:33.635Z,100525.14
2019-05-06T07:39:04.446Z,100511.59
2019-05-06T07:41:43.563Z,100517.91
2019-05-06T07:44:35.540Z,100520.02
2019-05-06T07:47:15.802Z,100527.16
2019-05-06T07:49:45.800Z,100528.05
2019-05-06T07:52:17.880Z,100524.33
2019-05-06T07:54:47.992Z,100520.73
2019-05-06T07:57:17.999Z,100511.23
2019-05-06T07:59:48.973Z,100511.51
2019-05-06T08:02:22.795Z,100513.28
2019-05-06T08:04:53.152Z,100500.89
2019-05-06T08:07:23.466Z,100516.70
2019-05-06T08:09:54.230Z,100516.66
2019-05-06T08:12:24.322Z,100514.80
2019-05-06T08:14:54.600Z,100506.08
2019-05-06T08:17:29.816Z,100524.73
2019-05-06T08:20:02.318Z,100524.69
2019-05-06T08:23:03.262Z,100531.89
2019-05-06T08:25:45.317Z,100525.33
2019-05-06T08:28:15.847Z,100522.96
2019-05-06T08:30:45.855Z,100528.53
2019-05-06T08:33:15.834Z,100527.53
2019-05-06T08:35:47.133Z,100533.50
2019-05-06T08:38:17.352Z,100526.80
2019-05-06T08:40:47.469Z,100525.40
2019-05-06T08:43:17.757Z,100518.81
2019-05-06T08:45:48.156Z,100512.95
2019-05-06T08:48:18.451Z,100501.49
2019-05-06T08:50:55.237Z,100499.50
2019-05-06T08:53:32.814Z,100496.86
2019-05-06T08:56:03.331Z,100493.35
2019-05-06T08:58:47.479Z,100502.02
2019-05-06T09:01:28.191Z,100498.39
2019-05-06T09:04:08.347Z,100504.97
2019-05-06T09:06:34.081Z,100514.59
2019-05-06T09:09:02.535Z,100508.97
2019-05-06T09:11:32.585Z,100509.43
2019-05-06T09:14:05.095Z,100508.91
2019-05-06T09:16:38.922Z,100509.50
2019-05-06T09:19:08.802Z,100502.97
2019-05-06T09:21:45.812Z,100497.41
2019-05-06T09:24:13.458Z,100504.50
2019-05-06T09:27:05.554Z,100487.55
2019-05-06T09:29:46.137Z,100476.16
2019-05-06T09:32:19.514Z,100482.69
2019-05-06T09:34:57.574Z,100482.91
2019-05-06T09:37:27.954Z,100479.09
2019-05-06T09:39:57.962Z,100491.98
2019-05-06T09:42:27.792Z,100504.50
2019-05-06T09:44:57.990Z,100504.04
2019-05-06T09:47:56.140Z,100492.03
2019-05-06T09:50:39.492Z,100494.20
2019-05-06T09:53:14.144Z,100508.41
2019-05-06T09:56:03.339Z,100502.51
2019-05-06T09:58:36.371Z,100498.28
2019-05-06T10:01:07.261Z,100506.36
2019-05-06T10:03:37.619Z,100501.67
2019-05-06T10:06:07.778Z,100500.95
2019-05-06T10:08:38.085Z,100509.08
2019-05-06T10:11:08.657Z,100505.17
2019-05-06T10:13:38.471Z,100495.66
2019-05-06T10:16:08.417Z,100499.39
2019-05-06T10:18:38.854Z,100495.41
2019-05-06T10:21:08.770Z,100498.03
2019-05-06T10:23:39.043Z,100495.54
2019-05-06T10:26:12.803Z,100505.63
2019-05-06T10:29:02.421Z,100504.80
2019-05-06T10:31:40.337Z,100489.75
2019-05-06T10:34:14.053Z,100498.78
2019-05-06T10:37:19.339Z,100499.99
2019-05-06T10:39:54.379Z,100497.95
2019-05-06T10:42:32.491Z,100489.02
2019-05-06T10:45:14.134Z,100491.95
2019-05-06T10:47:44.101Z,100486.53
2019-05-06T10:50:14.984Z,100492.72
2019-05-06T10:53:02.944Z,100493.78
2019-05-06T10:55:33.239Z,100483.27
2019-05-06T10:58:03.624Z,100482.80
2019-05-06T11:00:33.834Z,100484.19
2019-05-06T11:03:14.969Z,100476.73
2019-05-06T11:05:44.027Z,100479.02
2019-05-06T11:08:14.505Z,100487.33
2019-05-06T11:10:45.812Z,100487.32
2019-05-06T11:13:16.361Z,100485.46
2019-05-06T11:15:46.841Z,100481.09
2019-05-06T11:18:17.092Z,100475.39
2019-05-06T11:20:47.835Z,100482.45
2019-05-06T11:23:21.871Z,100463.23
2019-05-06T11:25:52.644Z,100468.80
2019-05-06T11:28:45.168Z,100466.36
2019-05-06T11:31:24.944Z,100462.63
2019-05-06T11:34:04.883Z,100456.20
2019-05-06T11:36:45.845Z,100458.89
2019-05-06T11:39:16.198Z,100462.41
2019-05-06T11:42:05.341Z,100452.39
2019-05-06T11:44:18.276Z,100449.16
2019-05-06T11:46:48.314Z,100441.16
2019-05-06T11:49:18.390Z,100452.34
2019-05-06T11:51:48.676Z,100449.30
2019-05-06T11:54:20.749Z,100436.55
2019-05-06T11:56:56.210Z,100442.08
2019-05-06T11:59:23.931Z,100442.03
2019-05-06T12:02:02.757Z,100442.72
2019-05-06T12:04:35.081Z,100439.99
2019-05-06T12:07:11.187Z,100448.95
2019-05-06T12:09:37.804Z,100444.34
2019-05-06T12:12:07.887Z,100443.95
2019-05-06T12:14:37.818Z,100441.14
2019-05-06T12:17:08.291Z,100441.90
2019-05-06T12:19:39.227Z,100438.56
2019-05-06T12:22:09.340Z,100438.80
2019-05-06T12:24:39.214Z,100442.62
2019-05-06T12:27:08.921Z,100435.50
2019-05-06T12:29:39.258Z,100436.86
2019-05-06T12:32:33.574Z,100439.75
2019-05-06T12:35:03.690Z,100445.45
2019-05-06T12:37:34.677Z,100442.94
2019-05-06T12:40:05.424Z,100446.41
2019-05-06T12:42:38.768Z,100446.30
2019-05-06T12:45:32.900Z,100447.13
2019-05-06T12:48:07.200Z,100444.55
2019-05-06T12:50:37.693Z,100442.69
2019-05-06T12:53:07.846Z,100439.33
2019-05-06T12:55:39.666Z,100445.97
2019-05-06T12:58:13.548Z,100445.31
2019-05-06T13:00:47.652Z,100448.42
2019-05-06T13:03:23.291Z,100447.15
2019-05-06T13:05:52.786Z,100449.45
2019-05-06T13:08:32.468Z,100452.45
2019-05-06T13:10:54.999Z,100459.45
2019-05-06T13:13:25.023Z,100453.69
2019-05-06T13:15:55.299Z,100454.34
2019-05-06T13:18:25.972Z,100455.38
2019-05-06T13:20:56.674Z,100452.22
2019-05-06T13:23:51.794Z,100447.07
2019-05-06T13:26:22.367Z,100447.01
2019-05-06T13:29:08.102Z,100445.33
2019-05-06T13:31:52.978Z,100444.16
2019-05-06T13:34:29.581Z,100438.33
2019-05-06T13:36:59.624Z,100434.68
2019-05-06T13:39:29.776Z,100439.18
2019-05-06T13:42:00.133Z,100430.89
2019-05-06T13:44:32.063Z,100428.97
2019-05-06T13:47:03.163Z,100430.50
2019-05-06T13:49:45.380Z,100433.41
2019-05-06T13:52:22.968Z,100433.22
2019-05-06T13:54:53.098Z,100427.54
2019-05-06T13:57:23.469Z,100428.38
2019-05-06T13:59:54.640Z,100422.78
2019-05-06T14:02:49.885Z,100422.64
2019-05-06T14:19:14.512Z,100406.30
2019-05-06T14:21:44.617Z,100406.30
2019-05-06T14:24:17.389Z,100412.47
2019-05-06T14:26:58.087Z,100415.11
2019-05-06T14:29:38.328Z,100412.38
2019-05-06T14:32:08.660Z,100409.37
2019-05-06T14:34:38.659Z,100411.30
2019-05-06T14:37:09.340Z,100412.19
2019-05-06T14:39:52.789Z,100409.28
2019-05-06T14:42:14.534Z,100416.56
2019-05-06T14:44:44.470Z,100418.48
2019-05-06T14:47:25.774Z,100421.00
2019-05-06T14:49:56.360Z,100417.71
2019-05-06T14:52:26.981Z,100421.73
2019-05-06T14:55:01.816Z,100426.64
2019-05-06T14:57:32.357Z,100433.22
2019-05-06T15:00:04.309Z,100428.69
2019-05-06T15:02:34.481Z,100427.18
2019-05-06T15:05:05.775Z,100429.84
2019-05-06T15:07:35.718Z,100426.77
2019-05-06T15:10:19.206Z,100427.00
2019-05-06T15:12:38.275Z,100436.70
2019-05-06T15:15:09.045Z,100431.52
2019-05-06T15:17:42.408Z,100431.91
2019-05-06T15:20:13.315Z,100425.92
2019-05-06T15:22:43.243Z,100420.84
2019-05-06T15:25:13.299Z,100425.48
2019-05-06T15:27:43.660Z,100419.09
2019-05-06T15:30:23.032Z,100419.80
2019-05-06T15:32:53.357Z,100422.02
2019-05-06T15:35:41.837Z,100421.14
2019-05-06T15:38:19.500Z,100418.23
2019-05-06T15:40:52.250Z,100423.72
2019-05-06T15:43:22.073Z,100418.70
2019-05-06T15:45:53.005Z,100417.02
2019-05-06T15:48:23.498Z,100419.16
2019-05-06T15:50:54.411Z,100421.84
2019-05-06T15:53:24.427Z,100412.20
2019-05-06T15:55:54.274Z,100424.64
2019-05-06T15:58:24.137Z,100424.96
2019-05-06T16:00:54.870Z,100427.71
2019-05-06T16:03:25.823Z,100411.32
2019-05-06T16:05:56.148Z,100422.44
2019-05-06T16:08:26.033Z,100423.20
2019-05-06T16:10:58.813Z,100413.47
2019-05-06T16:13:29.311Z,100422.55
2019-05-06T16:15:59.235Z,100419.48
2019-05-06T16:18:29.258Z,100424.86
2019-05-06T16:20:59.074Z,100424.11
2019-05-06T16:23:43.420Z,100419.66
2019-05-06T16:26:13.395Z,100413.84
2019-05-06T16:28:44.924Z,100419.63
2019-05-06T16:31:15.240Z,100425.05
2019-05-06T16:33:46.081Z,100411.38
2019-05-06T16:36:16.025Z,100419.84
2019-05-06T16:38:46.571Z,100414.81
2019-05-06T16:41:16.492Z,100415.86
2019-05-06T16:43:46.287Z,100410.80
2019-05-06T16:46:16.191Z,100414.08
2019-05-06T16:48:47.017Z,100411.64
2019-05-06T16:51:17.537Z,100405.09
2019-05-06T16:53:49.147Z,100410.06
2019-05-06T16:56:37.822Z,100410.55
2019-05-06T16:59:08.247Z,100404.72
2019-05-06T17:01:42.879Z,100410.80
2019-05-06T17:04:41.894Z,100405.76
2019-05-06T17:07:13.464Z,100411.64
2019-05-06T17:09:43.245Z,100412.97
2019-05-06T17:12:13.242Z,100415.55
2019-05-06T17:14:44.029Z,100410.27
2019-05-06T17:17:14.575Z,100408.78
2019-05-06T17:19:45.057Z,100411.49
2019-05-06T17:22:15.546Z,100409.09
2019-05-06T17:24:48.470Z,100409.91
2019-05-06T17:27:19.487Z,100408.47
2019-05-06T17:29:57.262Z,100411.23
2019-05-06T17:32:38.759Z,100410.03
2019-05-06T17:35:09.523Z,100404.06
2019-05-06T17:37:52.800Z,100404.48
2019-05-06T17:40:23.375Z,100402.63
2019-05-06T17:42:54.012Z,100419.47
2019-05-06T17:45:43.031Z,100415.38
2019-05-06T17:48:28.663Z,100412.86
2019-05-06T17:51:19.262Z,100416.01
2019-05-06T17:53:53.203Z,100414.02
2019-05-06T17:56:23.875Z,100412.01
2019-05-06T17:58:53.987Z,100422.68
2019-05-06T18:01:32.409Z,100416.34
2019-05-06T18:04:02.363Z,100422.81
2019-05-06T18:06:33.600Z,100422.26
2019-05-06T18:09:05.173Z,100423.71
2019-05-06T18:11:35.462Z,100419.40
2019-05-06T18:14:05.820Z,100429.38
2019-05-06T18:16:38.957Z,100430.94
2019-05-06T18:19:09.438Z,100425.76
2019-05-06T18:21:41.894Z,100429.27
2019-05-06T18:24:12.909Z,100429.11
2019-05-06T18:26:43.620Z,100431.25
2019-05-06T18:29:13.957Z,100437.45
2019-05-06T18:31:44.230Z,100433.47
2019-05-06T18:34:14.690Z,100440.04
2019-05-06T18:36:44.890Z,100440.13
2019-05-06T18:39:16.044Z,100442.97
2019-05-06T18:41:46.445Z,100445.59
2019-05-06T18:44:16.998Z,100453.52
2019-05-06T18:46:47.408Z,100454.80
2019-05-06T18:49:18.586Z,100457.17
2019-05-06T18:51:51.393Z,100456.59
2019-05-06T18:54:22.086Z,100461.56
2019-05-06T18:56:52.583Z,100458.42
2019-05-06T18:59:23.263Z,100467.89
2019-05-06T19:01:54.016Z,100474.22
2019-05-06T19:04:33.687Z,100485.94
2019-05-06T19:07:12.429Z,100485.05
2019-05-06T19:09:48.986Z,100485.56
2019-05-06T19:12:30.118Z,100487.46
2019-05-06T19:14:52.989Z,100496.18
2019-05-06T19:17:23.546Z,100499.27
2019-05-06T19:19:53.849Z,100502.20
2019-05-06T19:22:24.697Z,100501.11
2019-05-06T19:24:55.743Z,100501.06
2019-05-06T19:27:29.065Z,100506.66
2019-05-06T19:30:02.454Z,100500.27
2019-05-06T19:32:35.262Z,100510.52
2019-05-06T19:35:06.076Z,100508.61
2019-05-06T19:37:36.835Z,100507.66
2019-05-06T19:40:07.430Z,100511.39
2019-05-06T19:42:46.959Z,100506.85
2019-05-06T19:45:12.994Z,100512.88
2019-05-06T19:47:44.230Z,100510.41
2019-05-06T19:50:15.915Z,100515.21
2019-05-06T19:52:46.322Z,100513.84
2019-05-06T19:55:17.609Z,100509.72
2019-05-06T19:57:48.485Z,100519.47
2019-05-06T20:00:20.367Z,100516.72
2019-05-06T20:02:52.232Z,100515.56
2019-05-06T20:05:41.435Z,100516.25
2019-05-06T20:11:34.545Z,100512.52
2019-05-06T20:14:04.950Z,100509.72
2019-05-06T20:16:37.442Z,100511.50
2019-05-06T20:19:36.255Z,100511.09
2019-05-06T20:25:51.965Z,100507.13
2019-05-06T20:28:34.994Z,100510.78
2019-05-06T20:31:37.714Z,100518.70
2019-05-06T20:34:07.847Z,100512.30
2019-05-06T20:36:43.008Z,100512.51
2019-05-06T20:39:13.218Z,100509.08
2019-05-06T20:41:43.162Z,100510.14
2019-05-06T20:44:13.691Z,100511.55
2019-05-06T20:46:43.773Z,100513.70
2019-05-06T20:49:13.855Z,100515.05
2019-05-06T20:51:43.767Z,100508.53
2019-05-06T20:54:13.700Z,100509.39
2019-05-06T20:56:44.739Z,100509.56
2019-05-06T20:59:15.283Z,100505.15
2019-05-06T21:01:45.310Z,100507.54
2019-05-06T21:04:15.575Z,100507.29
2019-05-06T21:06:45.546Z,100500.42
2019-05-06T21:09:16.247Z,100505.97
2019-05-06T21:11:46.233Z,100500.80
2019-05-06T21:14:17.224Z,100502.09
2019-05-06T21:16:48.408Z,100500.02
2019-05-06T21:19:18.314Z,100510.23
2019-05-06T21:21:48.390Z,100506.35
2019-05-06T21:24:18.430Z,100510.45
2019-05-06T21:26:48.882Z,100496.84
2019-05-06T21:29:19.738Z,100503.20
2019-05-06T21:31:49.674Z,100503.05
2019-05-06T21:34:19.650Z,100502.72
2019-05-06T21:36:49.595Z,100501.03
2019-05-06T21:39:19.672Z,100503.31
2019-05-06T21:41:51.991Z,100507.03
2019-05-06T21:44:22.830Z,100501.87
2019-05-06T21:46:54.017Z,100505.99
2019-05-06T21:49:24.025Z,100501.88
2019-05-06T21:51:53.942Z,100508.55
2019-05-06T21:54:24.217Z,100503.75
2019-05-06T21:56:55.321Z,100500.35
2019-05-06T21:59:25.183Z,100504.94
2019-05-06T22:02:23.069Z,100499.51
2019-05-06T22:04:55.605Z,100499.51
2019-05-06T22:07:25.038Z,100501.08
2019-05-06T22:09:55.353Z,100498.37
2019-05-06T22:12:25.731Z,100496.84
2019-05-06T22:14:55.979Z,100497.09
2019-05-06T22:17:26.677Z,100507.77
2019-05-06T22:19:57.201Z,100503.25
2019-05-06T22:22:28.665Z,100500.53
2019-05-06T22:24:58.936Z,100497.33
2019-05-06T22:27:30.177Z,100498.52
2019-05-06T22:30:00.206Z,100500.77
2019-05-06T22:32:33.052Z,100495.89
2019-05-06T22:35:04.684Z,100496.34
2019-05-06T22:37:36.607Z,100497.84
2019-05-06T22:40:08.061Z,100496.53
2019-05-06T22:42:37.856Z,100492.78
2019-05-06T22:45:08.410Z,100490.83
2019-05-06T22:47:38.680Z,100489.06
2019-05-06T22:50:12.887Z,100485.30
2019-05-06T22:52:42.388Z,100490.80
2019-05-06T22:55:13.178Z,100486.69
2019-05-06T22:57:43.048Z,100485.13
2019-05-06T23:00:18.852Z,100487.70
2019-05-06T23:03:02.313Z,100486.03
2019-05-06T23:05:32.692Z,100485.12
2019-05-06T23:08:02.855Z,100485.47
2019-05-06T23:10:33.662Z,100489.43
2019-05-06T23:13:03.933Z,100480.20
2019-05-06T23:15:34.739Z,100478.83
2019-05-06T23:18:05.300Z,100479.77
2019-05-06T23:20:35.126Z,100480.72
2019-05-06T23:23:05.131Z,100480.83
2019-05-06T23:25:35.256Z,100486.98
2019-05-06T23:28:05.828Z,100488.17
2019-05-06T23:30:35.850Z,100487.23
2019-05-06T23:33:05.837Z,100480.42
2019-05-06T23:35:35.675Z,100481.41
2019-05-06T23:38:43.016Z,100479.16
2019-05-06T23:41:48.768Z,100474.09
2019-05-06T23:44:54.683Z,100474.90
2019-05-06T23:48:02.410Z,100483.14
2019-05-06T23:51:07.913Z,100481.91
2019-05-06T23:54:13.122Z,100484.91
2019-05-06T23:56:43.744Z,100474.19
2019-05-06T23:59:16.204Z,100476.05
